sensor_id;sensor_type;location;lat;lon;timestamp;temperature;humidity
23507;DHT22;11930;53.076;18.250;2022-07-29T00:00:53;13.70;99.90
23507;DHT22;11930;53.076;18.250;2022-07-29T00:03:19;13.70;99.90
23507;DHT22;11930;53.076;18.250;2022-07-29T00:05:45;13.70;99.90
23507;DHT22;11930;53.076;18.250;2022-07-29T00:08:11;13.70;99.90
23507;DHT22;11930;53.076;18.250;2022-07-29T00:10:37;13.70;99.90
23507;DHT22;11930;53.076;18.250;2022-07-29T00:13:04;13.70;99.90
23507;DHT22;11930;53.076;18.250;2022-07-29T00:15:30;13.60;99.90
23507;DHT22;11930;53.076;18.250;2022-07-29T00:17:56;13.60;99.90
23507;DHT22;11930;53.076;18.250;2022-07-29T00:20:22;13.60;99.90
23507;DHT22;11930;53.076;18.250;2022-07-29T00:22:48;13.60;99.90
23507;DHT22;11930;53.076;18.250;2022-07-29T00:25:14;13.60;99.90
23507;DHT22;11930;53.076;18.250;2022-07-29T00:27:40;13.60;99.90
23507;DHT22;11930;53.076;18.250;2022-07-29T00:30:07;13.60;99.90
23507;DHT22;11930;53.076;18.250;2022-07-29T00:32:34;13.60;99.90
23507;DHT22;11930;53.076;18.250;2022-07-29T00:35:00;13.50;99.90
23507;DHT22;11930;53.076;18.250;2022-07-29T00:37:44;13.50;99.90
23507;DHT22;11930;53.076;18.250;2022-07-29T00:40:10;13.50;99.90
23507;DHT22;11930;53.076;18.250;2022-07-29T00:42:43;13.40;99.90
23507;DHT22;11930;53.076;18.250;2022-07-29T00:45:10;13.30;99.90
23507;DHT22;11930;53.076;18.250;2022-07-29T00:47:36;13.20;99.90
23507;DHT22;11930;53.076;18.250;2022-07-29T00:50:04;13.10;99.90
23507;DHT22;11930;53.076;18.250;2022-07-29T00:52:31;12.90;99.90
23507;DHT22;11930;53.076;18.250;2022-07-29T00:54:57;12.80;99.90
23507;DHT22;11930;53.076;18.250;2022-07-29T00:57:23;12.70;99.90
23507;DHT22;11930;53.076;18.250;2022-07-29T00:59:49;12.60;99.90
23507;DHT22;11930;53.076;18.250;2022-07-29T01:02:15;12.60;99.90
23507;DHT22;11930;53.076;18.250;2022-07-29T01:04:41;12.50;99.90
23507;DHT22;11930;53.076;18.250;2022-07-29T01:07:08;12.40;99.90
23507;DHT22;11930;53.076;18.250;2022-07-29T01:09:34;12.30;99.90
23507;DHT22;11930;53.076;18.250;2022-07-29T01:12:02;12.30;99.90
23507;DHT22;11930;53.076;18.250;2022-07-29T01:14:29;12.20;99.90
23507;DHT22;11930;53.076;18.250;2022-07-29T01:17:00;12.10;99.90
23507;DHT22;11930;53.076;18.250;2022-07-29T01:20:17;12.10;99.90
23507;DHT22;11930;53.076;18.250;2022-07-29T01:22:43;12.10;99.90
23507;DHT22;11930;53.076;18.250;2022-07-29T01:28:17;12.10;99.90
23507;DHT22;11930;53.076;18.250;2022-07-29T01:30:46;12.10;99.90
23507;DHT22;11930;53.076;18.250;2022-07-29T01:33:17;12.10;99.90
23507;DHT22;11930;53.076;18.250;2022-07-29T01:36:11;12.20;99.90
23507;DHT22;11930;53.076;18.250;2022-07-29T01:38:41;12.30;99.90
23507;DHT22;11930;53.076;18.250;2022-07-29T01:41:13;12.40;99.90
23507;DHT22;11930;53.076;18.250;2022-07-29T01:43:50;12.40;99.90
23507;DHT22;11930;53.076;18.250;2022-07-29T01:46:33;12.30;99.90
23507;DHT22;11930;53.076;18.250;2022-07-29T01:49:08;12.40;99.90
23507;DHT22;11930;53.076;18.250;2022-07-29T01:51:58;12.50;99.90
23507;DHT22;11930;53.076;18.250;2022-07-29T01:54:30;12.40;99.90
23507;DHT22;11930;53.076;18.250;2022-07-29T01:56:59;12.40;99.90
23507;DHT22;11930;53.076;18.250;2022-07-29T01:59:26;12.40;99.90
23507;DHT22;11930;53.076;18.250;2022-07-29T02:01:57;12.40;99.90
23507;DHT22;11930;53.076;18.250;2022-07-29T02:04:25;12.40;99.90
23507;DHT22;11930;53.076;18.250;2022-07-29T02:06:53;12.40;99.90
23507;DHT22;11930;53.076;18.250;2022-07-29T02:09:22;12.40;99.90
23507;DHT22;11930;53.076;18.250;2022-07-29T02:11:53;12.30;99.90
23507;DHT22;11930;53.076;18.250;2022-07-29T02:14:21;12.40;99.90
23507;DHT22;11930;53.076;18.250;2022-07-29T02:16:51;12.40;99.90
23507;DHT22;11930;53.076;18.250;2022-07-29T02:19:21;12.40;99.90
23507;DHT22;11930;53.076;18.250;2022-07-29T02:21:47;12.40;99.90
23507;DHT22;11930;53.076;18.250;2022-07-29T02:24:14;12.30;99.90
23507;DHT22;11930;53.076;18.250;2022-07-29T02:26:43;12.20;99.90
23507;DHT22;11930;53.076;18.250;2022-07-29T02:29:10;12.10;99.90
23507;DHT22;11930;53.076;18.250;2022-07-29T02:31:38;12.10;99.90
23507;DHT22;11930;53.076;18.250;2022-07-29T02:34:07;12.00;99.90
23507;DHT22;11930;53.076;18.250;2022-07-29T02:36:34;12.00;99.90
23507;DHT22;11930;53.076;18.250;2022-07-29T02:39:02;12.00;99.90
23507;DHT22;11930;53.076;18.250;2022-07-29T02:41:38;11.90;99.90
23507;DHT22;11930;53.076;18.250;2022-07-29T02:44:14;11.80;99.90
23507;DHT22;11930;53.076;18.250;2022-07-29T02:47:10;11.80;99.90
23507;DHT22;11930;53.076;18.250;2022-07-29T02:49:48;11.70;99.90
23507;DHT22;11930;53.076;18.250;2022-07-29T02:52:30;11.70;99.90
23507;DHT22;11930;53.076;18.250;2022-07-29T02:55:04;11.60;99.90
23507;DHT22;11930;53.076;18.250;2022-07-29T02:57:43;11.60;99.90
23507;DHT22;11930;53.076;18.250;2022-07-29T03:00:10;11.70;99.90
23507;DHT22;11930;53.076;18.250;2022-07-29T03:02:40;11.70;99.90
23507;DHT22;11930;53.076;18.250;2022-07-29T03:05:18;11.80;99.90
23507;DHT22;11930;53.076;18.250;2022-07-29T03:07:48;11.90;99.90
23507;DHT22;11930;53.076;18.250;2022-07-29T03:10:15;12.00;99.90
23507;DHT22;11930;53.076;18.250;2022-07-29T03:12:41;12.10;99.90
23507;DHT22;11930;53.076;18.250;2022-07-29T03:15:09;12.10;99.90
23507;DHT22;11930;53.076;18.250;2022-07-29T03:17:35;12.20;99.90
23507;DHT22;11930;53.076;18.250;2022-07-29T03:20:02;12.20;99.90
23507;DHT22;11930;53.076;18.250;2022-07-29T03:22:29;12.30;99.90
23507;DHT22;11930;53.076;18.250;2022-07-29T03:24:55;12.30;99.90
23507;DHT22;11930;53.076;18.250;2022-07-29T03:27:21;12.40;99.90
23507;DHT22;11930;53.076;18.250;2022-07-29T03:29:47;12.30;99.90
23507;DHT22;11930;53.076;18.250;2022-07-29T03:32:13;12.30;99.90
23507;DHT22;11930;53.076;18.250;2022-07-29T03:34:39;12.30;99.90
23507;DHT22;11930;53.076;18.250;2022-07-29T03:37:06;12.30;99.90
23507;DHT22;11930;53.076;18.250;2022-07-29T03:39:36;12.30;99.90
23507;DHT22;11930;53.076;18.250;2022-07-29T03:42:04;12.50;99.90
23507;DHT22;11930;53.076;18.250;2022-07-29T03:44:32;13.20;99.90
23507;DHT22;11930;53.076;18.250;2022-07-29T03:47:00;14.10;99.90
23507;DHT22;11930;53.076;18.250;2022-07-29T03:49:27;14.70;99.90
23507;DHT22;11930;53.076;18.250;2022-07-29T03:51:55;15.30;99.90
23507;DHT22;11930;53.076;18.250;2022-07-29T03:54:21;16.10;99.90
23507;DHT22;11930;53.076;18.250;2022-07-29T03:56:48;16.70;99.90
23507;DHT22;11930;53.076;18.250;2022-07-29T03:59:17;17.30;99.90
23507;DHT22;11930;53.076;18.250;2022-07-29T04:01:46;17.80;99.90
23507;DHT22;11930;53.076;18.250;2022-07-29T04:04:12;18.50;99.90
23507;DHT22;11930;53.076;18.250;2022-07-29T04:06:42;18.80;99.90
23507;DHT22;11930;53.076;18.250;2022-07-29T04:09:09;18.90;99.90
23507;DHT22;11930;53.076;18.250;2022-07-29T04:11:39;19.40;99.90
23507;DHT22;11930;53.076;18.250;2022-07-29T04:14:06;20.10;99.90
23507;DHT22;11930;53.076;18.250;2022-07-29T04:16:32;20.80;99.90
23507;DHT22;11930;53.076;18.250;2022-07-29T04:18:58;21.40;99.90
23507;DHT22;11930;53.076;18.250;2022-07-29T04:21:49;21.90;99.90
23507;DHT22;11930;53.076;18.250;2022-07-29T04:24:15;23.00;99.90
23507;DHT22;11930;53.076;18.250;2022-07-29T04:26:42;23.30;99.90
23507;DHT22;11930;53.076;18.250;2022-07-29T04:29:08;23.00;99.90
23507;DHT22;11930;53.076;18.250;2022-07-29T04:31:34;22.90;99.90
23507;DHT22;11930;53.076;18.250;2022-07-29T04:34:00;23.10;99.90
23507;DHT22;11930;53.076;18.250;2022-07-29T04:36:26;23.60;98.50
23507;DHT22;11930;53.076;18.250;2022-07-29T04:38:52;24.10;94.50
23507;DHT22;11930;53.076;18.250;2022-07-29T04:41:18;24.70;90.70
23507;DHT22;11930;53.076;18.250;2022-07-29T04:43:43;24.70;90.60
23507;DHT22;11930;53.076;18.250;2022-07-29T04:46:09;25.00;86.60
23507;DHT22;11930;53.076;18.250;2022-07-29T04:48:35;24.70;84.80
23507;DHT22;11930;53.076;18.250;2022-07-29T04:51:02;24.80;82.10
23507;DHT22;11930;53.076;18.250;2022-07-29T04:53:28;23.70;90.60
23507;DHT22;11930;53.076;18.250;2022-07-29T04:55:54;23.00;92.70
23507;DHT22;11930;53.076;18.250;2022-07-29T04:58:20;21.80;99.90
23507;DHT22;11930;53.076;18.250;2022-07-29T05:00:46;20.90;99.90
23507;DHT22;11930;53.076;18.250;2022-07-29T05:03:12;20.10;99.90
23507;DHT22;11930;53.076;18.250;2022-07-29T05:05:38;19.50;99.90
23507;DHT22;11930;53.076;18.250;2022-07-29T05:08:05;19.20;99.90
23507;DHT22;11930;53.076;18.250;2022-07-29T05:10:31;18.80;99.90
23507;DHT22;11930;53.076;18.250;2022-07-29T05:12:58;18.60;99.90
23507;DHT22;11930;53.076;18.250;2022-07-29T05:15:24;18.70;99.90
23507;DHT22;11930;53.076;18.250;2022-07-29T05:17:50;18.70;99.90
23507;DHT22;11930;53.076;18.250;2022-07-29T05:20:16;18.40;99.90
23507;DHT22;11930;53.076;18.250;2022-07-29T05:22:42;18.40;99.90
23507;DHT22;11930;53.076;18.250;2022-07-29T05:25:08;18.40;99.90
23507;DHT22;11930;53.076;18.250;2022-07-29T05:27:35;18.30;99.90
23507;DHT22;11930;53.076;18.250;2022-07-29T05:30:02;18.20;99.90
23507;DHT22;11930;53.076;18.250;2022-07-29T05:32:28;18.30;99.90
23507;DHT22;11930;53.076;18.250;2022-07-29T05:34:54;18.10;99.90
23507;DHT22;11930;53.076;18.250;2022-07-29T05:37:20;18.20;99.90
23507;DHT22;11930;53.076;18.250;2022-07-29T05:39:47;18.30;99.90
23507;DHT22;11930;53.076;18.250;2022-07-29T05:42:13;18.60;99.90
23507;DHT22;11930;53.076;18.250;2022-07-29T05:44:39;18.90;99.90
23507;DHT22;11930;53.076;18.250;2022-07-29T05:47:06;19.10;99.90
23507;DHT22;11930;53.076;18.250;2022-07-29T05:49:32;19.00;99.90
23507;DHT22;11930;53.076;18.250;2022-07-29T05:51:58;18.80;99.90
23507;DHT22;11930;53.076;18.250;2022-07-29T05:54:25;18.70;99.90
23507;DHT22;11930;53.076;18.250;2022-07-29T05:56:51;18.60;99.90
23507;DHT22;11930;53.076;18.250;2022-07-29T05:59:17;18.70;99.90
23507;DHT22;11930;53.076;18.250;2022-07-29T06:01:43;18.60;99.90
23507;DHT22;11930;53.076;18.250;2022-07-29T06:04:09;18.60;99.90
23507;DHT22;11930;53.076;18.250;2022-07-29T06:06:34;18.60;99.90
23507;DHT22;11930;53.076;18.250;2022-07-29T06:09:02;18.80;99.90
23507;DHT22;11930;53.076;18.250;2022-07-29T06:11:28;18.90;99.90
23507;DHT22;11930;53.076;18.250;2022-07-29T06:13:54;18.90;99.90
23507;DHT22;11930;53.076;18.250;2022-07-29T06:16:20;18.80;99.90
23507;DHT22;11930;53.076;18.250;2022-07-29T06:18:46;18.80;99.90
23507;DHT22;11930;53.076;18.250;2022-07-29T06:21:12;19.00;99.90
23507;DHT22;11930;53.076;18.250;2022-07-29T06:23:38;19.10;99.90
23507;DHT22;11930;53.076;18.250;2022-07-29T06:26:05;19.30;99.90
23507;DHT22;11930;53.076;18.250;2022-07-29T06:28:32;19.30;99.90
23507;DHT22;11930;53.076;18.250;2022-07-29T06:30:59;19.40;99.90
23507;DHT22;11930;53.076;18.250;2022-07-29T06:33:25;19.60;99.90
23507;DHT22;11930;53.076;18.250;2022-07-29T06:35:51;19.90;99.90
23507;DHT22;11930;53.076;18.250;2022-07-29T06:38:17;20.10;99.90
23507;DHT22;11930;53.076;18.250;2022-07-29T06:40:44;20.60;99.90
23507;DHT22;11930;53.076;18.250;2022-07-29T06:43:36;20.80;99.90
23507;DHT22;11930;53.076;18.250;2022-07-29T06:46:05;21.30;99.90
23507;DHT22;11930;53.076;18.250;2022-07-29T06:48:33;22.10;99.90
23507;DHT22;11930;53.076;18.250;2022-07-29T06:50:59;22.90;99.90
23507;DHT22;11930;53.076;18.250;2022-07-29T06:53:26;23.80;99.90
23507;DHT22;11930;53.076;18.250;2022-07-29T06:55:52;24.60;95.90
23507;DHT22;11930;53.076;18.250;2022-07-29T06:58:18;25.90;90.70
23507;DHT22;11930;53.076;18.250;2022-07-29T07:00:56;27.00;83.60
23507;DHT22;11930;53.076;18.250;2022-07-29T07:03:23;28.00;71.60
23507;DHT22;11930;53.076;18.250;2022-07-29T07:05:49;28.50;68.70
23507;DHT22;11930;53.076;18.250;2022-07-29T07:08:16;28.80;63.60
23507;DHT22;11930;53.076;18.250;2022-07-29T07:10:42;28.90;63.50
23507;DHT22;11930;53.076;18.250;2022-07-29T07:13:08;29.20;61.80
23507;DHT22;11930;53.076;18.250;2022-07-29T07:15:36;29.90;59.40
23507;DHT22;11930;53.076;18.250;2022-07-29T07:18:03;30.60;57.60
23507;DHT22;11930;53.076;18.250;2022-07-29T07:20:29;30.20;57.30
23507;DHT22;11930;53.076;18.250;2022-07-29T07:22:55;30.20;56.80
23507;DHT22;11930;53.076;18.250;2022-07-29T07:25:21;30.20;57.20
23507;DHT22;11930;53.076;18.250;2022-07-29T07:27:47;30.90;55.50
23507;DHT22;11930;53.076;18.250;2022-07-29T07:30:13;30.90;54.80
23507;DHT22;11930;53.076;18.250;2022-07-29T07:32:39;31.40;53.80
23507;DHT22;11930;53.076;18.250;2022-07-29T07:35:07;31.00;54.00
23507;DHT22;11930;53.076;18.250;2022-07-29T07:37:34;30.50;54.20
23507;DHT22;11930;53.076;18.250;2022-07-29T07:40:00;30.20;54.70
23507;DHT22;11930;53.076;18.250;2022-07-29T07:42:27;30.50;53.60
23507;DHT22;11930;53.076;18.250;2022-07-29T07:44:53;30.70;53.70
23507;DHT22;11930;53.076;18.250;2022-07-29T07:47:19;30.80;53.10
23507;DHT22;11930;53.076;18.250;2022-07-29T07:49:49;31.20;53.40
23507;DHT22;11930;53.076;18.250;2022-07-29T07:52:17;31.60;52.10
23507;DHT22;11930;53.076;18.250;2022-07-29T07:54:43;31.40;51.50
23507;DHT22;11930;53.076;18.250;2022-07-29T07:57:11;31.20;51.50
23507;DHT22;11930;53.076;18.250;2022-07-29T07:59:38;30.40;52.90
23507;DHT22;11930;53.076;18.250;2022-07-29T08:02:04;29.70;55.10
23507;DHT22;11930;53.076;18.250;2022-07-29T08:04:30;29.60;55.10
23507;DHT22;11930;53.076;18.250;2022-07-29T08:06:57;30.10;54.20
23507;DHT22;11930;53.076;18.250;2022-07-29T08:09:25;30.80;53.00
23507;DHT22;11930;53.076;18.250;2022-07-29T08:11:52;31.40;52.20
23507;DHT22;11930;53.076;18.250;2022-07-29T08:14:19;31.30;52.00
23507;DHT22;11930;53.076;18.250;2022-07-29T08:16:45;31.40;52.70
23507;DHT22;11930;53.076;18.250;2022-07-29T08:19:11;31.40;52.50
23507;DHT22;11930;53.076;18.250;2022-07-29T08:21:38;31.40;52.30
23507;DHT22;11930;53.076;18.250;2022-07-29T08:24:04;32.00;50.60
23507;DHT22;11930;53.076;18.250;2022-07-29T08:26:49;32.20;50.20
23507;DHT22;11930;53.076;18.250;2022-07-29T08:29:15;33.40;47.70
23507;DHT22;11930;53.076;18.250;2022-07-29T08:31:41;33.60;46.90
23507;DHT22;11930;53.076;18.250;2022-07-29T08:34:08;33.10;47.40
23507;DHT22;11930;53.076;18.250;2022-07-29T08:36:37;32.30;49.40
23507;DHT22;11930;53.076;18.250;2022-07-29T08:39:04;33.70;47.10
23507;DHT22;11930;53.076;18.250;2022-07-29T08:41:30;33.90;46.20
23507;DHT22;11930;53.076;18.250;2022-07-29T08:43:57;33.30;46.60
23507;DHT22;11930;53.076;18.250;2022-07-29T08:46:23;32.00;48.70
23507;DHT22;11930;53.076;18.250;2022-07-29T08:48:49;31.30;49.20
23507;DHT22;11930;53.076;18.250;2022-07-29T08:51:18;31.60;48.40
23507;DHT22;11930;53.076;18.250;2022-07-29T08:53:46;31.50;49.00
23507;DHT22;11930;53.076;18.250;2022-07-29T08:56:15;31.30;49.20
23507;DHT22;11930;53.076;18.250;2022-07-29T08:58:43;30.70;49.70
23507;DHT22;11930;53.076;18.250;2022-07-29T09:01:10;30.10;52.10
23507;DHT22;11930;53.076;18.250;2022-07-29T09:03:38;29.90;51.70
23507;DHT22;11930;53.076;18.250;2022-07-29T09:06:05;29.60;51.90
23507;DHT22;11930;53.076;18.250;2022-07-29T09:08:32;28.80;50.40
23507;DHT22;11930;53.076;18.250;2022-07-29T09:11:01;27.90;53.50
23507;DHT22;11930;53.076;18.250;2022-07-29T09:13:27;27.50;54.60
23507;DHT22;11930;53.076;18.250;2022-07-29T09:15:53;27.10;53.70
23507;DHT22;11930;53.076;18.250;2022-07-29T09:18:39;26.80;54.40
23507;DHT22;11930;53.076;18.250;2022-07-29T09:21:07;26.60;54.50
23507;DHT22;11930;53.076;18.250;2022-07-29T09:24:13;26.70;55.10
23507;DHT22;11930;53.076;18.250;2022-07-29T09:26:44;26.80;56.80
23507;DHT22;11930;53.076;18.250;2022-07-29T09:31:40;27.10;53.40
23507;DHT22;11930;53.076;18.250;2022-07-29T09:34:07;26.60;53.20
23507;DHT22;11930;53.076;18.250;2022-07-29T09:36:44;26.20;56.70
23507;DHT22;11930;53.076;18.250;2022-07-29T09:39:12;26.60;56.00
23507;DHT22;11930;53.076;18.250;2022-07-29T09:41:52;26.70;53.50
23507;DHT22;11930;53.076;18.250;2022-07-29T09:44:19;27.00;53.00
23507;DHT22;11930;53.076;18.250;2022-07-29T09:47:03;26.80;52.70
23507;DHT22;11930;53.076;18.250;2022-07-29T09:49:49;26.70;52.90
23507;DHT22;11930;53.076;18.250;2022-07-29T09:52:16;26.40;53.40
23507;DHT22;11930;53.076;18.250;2022-07-29T09:54:42;26.20;53.90
23507;DHT22;11930;53.076;18.250;2022-07-29T09:57:09;26.00;52.90
23507;DHT22;11930;53.076;18.250;2022-07-29T10:00:09;26.10;54.20
23507;DHT22;11930;53.076;18.250;2022-07-29T10:02:40;26.00;54.50
23507;DHT22;11930;53.076;18.250;2022-07-29T10:05:19;26.00;54.60
23507;DHT22;11930;53.076;18.250;2022-07-29T10:07:48;25.70;57.20
23507;DHT22;11930;53.076;18.250;2022-07-29T10:10:31;25.80;56.80
23507;DHT22;11930;53.076;18.250;2022-07-29T10:13:00;25.80;55.10
23507;DHT22;11930;53.076;18.250;2022-07-29T10:15:31;25.80;54.50
23507;DHT22;11930;53.076;18.250;2022-07-29T10:17:59;25.90;54.00
23507;DHT22;11930;53.076;18.250;2022-07-29T10:20:26;25.90;53.70
23507;DHT22;11930;53.076;18.250;2022-07-29T10:22:53;25.90;52.40
23507;DHT22;11930;53.076;18.250;2022-07-29T10:25:20;25.80;53.10
23507;DHT22;11930;53.076;18.250;2022-07-29T10:27:47;25.80;53.80
23507;DHT22;11930;53.076;18.250;2022-07-29T10:30:15;26.00;52.80
23507;DHT22;11930;53.076;18.250;2022-07-29T10:35:46;25.60;55.00
23507;DHT22;11930;53.076;18.250;2022-07-29T10:41:10;25.60;54.40
23507;DHT22;11930;53.076;18.250;2022-07-29T10:44:09;26.00;54.80
23507;DHT22;11930;53.076;18.250;2022-07-29T10:46:40;26.00;54.10
23507;DHT22;11930;53.076;18.250;2022-07-29T10:49:17;26.00;53.60
23507;DHT22;11930;53.076;18.250;2022-07-29T10:57:21;26.00;52.90
23507;DHT22;11930;53.076;18.250;2022-07-29T10:59:52;25.90;52.90
23507;DHT22;11930;53.076;18.250;2022-07-29T11:05:13;25.70;53.90
23507;DHT22;11930;53.076;18.250;2022-07-29T11:10:38;25.60;54.50
23507;DHT22;11930;53.076;18.250;2022-07-29T11:13:05;25.60;53.60
23507;DHT22;11930;53.076;18.250;2022-07-29T11:15:54;25.50;53.70
23507;DHT22;11930;53.076;18.250;2022-07-29T11:18:21;25.50;52.60
23507;DHT22;11930;53.076;18.250;2022-07-29T11:20:48;25.50;53.70
23507;DHT22;11930;53.076;18.250;2022-07-29T11:28:42;25.10;54.80
23507;DHT22;11930;53.076;18.250;2022-07-29T11:34:19;25.20;54.00
23507;DHT22;11930;53.076;18.250;2022-07-29T11:39:42;25.00;54.90
23507;DHT22;11930;53.076;18.250;2022-07-29T11:45:05;25.20;54.30
23507;DHT22;11930;53.076;18.250;2022-07-29T11:47:35;25.40;54.80
23507;DHT22;11930;53.076;18.250;2022-07-29T11:50:07;25.50;53.50
23507;DHT22;11930;53.076;18.250;2022-07-29T11:52:34;25.40;54.10
23507;DHT22;11930;53.076;18.250;2022-07-29T11:55:06;25.40;54.20
23507;DHT22;11930;53.076;18.250;2022-07-29T11:57:33;25.40;53.70
23507;DHT22;11930;53.076;18.250;2022-07-29T12:00:00;25.30;53.30
23507;DHT22;11930;53.076;18.250;2022-07-29T12:02:39;25.30;53.80
23507;DHT22;11930;53.076;18.250;2022-07-29T12:05:08;25.10;53.80
23507;DHT22;11930;53.076;18.250;2022-07-29T12:07:35;25.20;53.60
23507;DHT22;11930;53.076;18.250;2022-07-29T12:10:04;25.40;53.90
23507;DHT22;11930;53.076;18.250;2022-07-29T12:12:31;25.50;53.30
23507;DHT22;11930;53.076;18.250;2022-07-29T12:14:57;25.70;52.00
23507;DHT22;11930;53.076;18.250;2022-07-29T12:17:33;25.70;52.90
23507;DHT22;11930;53.076;18.250;2022-07-29T12:20:01;25.80;51.50
23507;DHT22;11930;53.076;18.250;2022-07-29T12:22:34;25.90;50.60
23507;DHT22;11930;53.076;18.250;2022-07-29T12:25:09;25.70;50.10
23507;DHT22;11930;53.076;18.250;2022-07-29T12:27:37;25.80;50.20
23507;DHT22;11930;53.076;18.250;2022-07-29T12:30:06;26.00;49.70
23507;DHT22;11930;53.076;18.250;2022-07-29T12:32:37;26.00;50.60
23507;DHT22;11930;53.076;18.250;2022-07-29T12:35:09;26.10;51.70
23507;DHT22;11930;53.076;18.250;2022-07-29T12:37:37;26.10;51.60
23507;DHT22;11930;53.076;18.250;2022-07-29T12:40:04;26.30;53.60
23507;DHT22;11930;53.076;18.250;2022-07-29T12:42:31;26.60;51.40
23507;DHT22;11930;53.076;18.250;2022-07-29T12:44:57;26.70;50.00
23507;DHT22;11930;53.076;18.250;2022-07-29T12:47:23;26.70;51.40
23507;DHT22;11930;53.076;18.250;2022-07-29T12:50:09;26.80;50.20
23507;DHT22;11930;53.076;18.250;2022-07-29T12:52:35;26.70;50.20
23507;DHT22;11930;53.076;18.250;2022-07-29T12:55:02;26.30;50.10
23507;DHT22;11930;53.076;18.250;2022-07-29T12:57:28;26.00;51.60
23507;DHT22;11930;53.076;18.250;2022-07-29T13:00:09;25.50;51.50
23507;DHT22;11930;53.076;18.250;2022-07-29T13:02:37;25.50;53.00
23507;DHT22;11930;53.076;18.250;2022-07-29T13:05:05;25.50;51.70
23507;DHT22;11930;53.076;18.250;2022-07-29T13:07:33;25.80;52.40
23507;DHT22;11930;53.076;18.250;2022-07-29T13:10:19;25.80;51.40
23507;DHT22;11930;53.076;18.250;2022-07-29T13:15:32;26.00;50.30
23507;DHT22;11930;53.076;18.250;2022-07-29T13:17:58;26.00;51.70
23507;DHT22;11930;53.076;18.250;2022-07-29T13:20:25;25.80;52.50
23507;DHT22;11930;53.076;18.250;2022-07-29T13:22:59;25.60;52.00
23507;DHT22;11930;53.076;18.250;2022-07-29T13:25:28;25.50;53.00
23507;DHT22;11930;53.076;18.250;2022-07-29T13:27:54;25.40;52.30
23507;DHT22;11930;53.076;18.250;2022-07-29T13:30:21;25.40;52.00
23507;DHT22;11930;53.076;18.250;2022-07-29T13:32:48;25.30;53.00
23507;DHT22;11930;53.076;18.250;2022-07-29T13:35:14;25.40;54.00
23507;DHT22;11930;53.076;18.250;2022-07-29T13:37:40;25.50;52.00
23507;DHT22;11930;53.076;18.250;2022-07-29T13:40:08;25.60;51.90
23507;DHT22;11930;53.076;18.250;2022-07-29T13:42:34;25.60;51.30
23507;DHT22;11930;53.076;18.250;2022-07-29T13:45:01;25.50;52.10
23507;DHT22;11930;53.076;18.250;2022-07-29T13:47:27;25.60;52.80
23507;DHT22;11930;53.076;18.250;2022-07-29T13:49:55;25.80;52.30
23507;DHT22;11930;53.076;18.250;2022-07-29T13:52:21;25.90;51.20
23507;DHT22;11930;53.076;18.250;2022-07-29T13:54:47;25.60;50.20
23507;DHT22;11930;53.076;18.250;2022-07-29T13:57:13;25.10;52.00
23507;DHT22;11930;53.076;18.250;2022-07-29T13:59:43;25.10;51.70
23507;DHT22;11930;53.076;18.250;2022-07-29T14:02:10;25.10;52.40
23507;DHT22;11930;53.076;18.250;2022-07-29T14:04:36;25.20;52.90
23507;DHT22;11930;53.076;18.250;2022-07-29T14:07:03;25.40;52.00
23507;DHT22;11930;53.076;18.250;2022-07-29T14:09:29;25.50;52.10
23507;DHT22;11930;53.076;18.250;2022-07-29T14:11:55;25.40;50.30
23507;DHT22;11930;53.076;18.250;2022-07-29T14:14:22;25.30;50.30
23507;DHT22;11930;53.076;18.250;2022-07-29T14:16:47;25.30;50.60
23507;DHT22;11930;53.076;18.250;2022-07-29T14:19:13;25.10;50.60
23507;DHT22;11930;53.076;18.250;2022-07-29T14:21:39;25.00;50.40
23507;DHT22;11930;53.076;18.250;2022-07-29T14:24:06;25.10;50.60
23507;DHT22;11930;53.076;18.250;2022-07-29T14:26:32;25.10;50.40
23507;DHT22;11930;53.076;18.250;2022-07-29T14:28:58;25.20;50.10
23507;DHT22;11930;53.076;18.250;2022-07-29T14:31:24;25.20;48.80
23507;DHT22;11930;53.076;18.250;2022-07-29T14:33:50;25.00;48.90
23507;DHT22;11930;53.076;18.250;2022-07-29T14:36:16;25.00;49.20
23507;DHT22;11930;53.076;18.250;2022-07-29T14:38:42;25.00;50.00
23507;DHT22;11930;53.076;18.250;2022-07-29T14:41:08;25.00;49.10
23507;DHT22;11930;53.076;18.250;2022-07-29T14:43:34;25.10;49.60
23507;DHT22;11930;53.076;18.250;2022-07-29T14:46:01;25.20;50.60
23507;DHT22;11930;53.076;18.250;2022-07-29T14:48:27;25.20;51.00
23507;DHT22;11930;53.076;18.250;2022-07-29T14:50:53;25.30;50.70
23507;DHT22;11930;53.076;18.250;2022-07-29T14:53:22;25.40;49.50
23507;DHT22;11930;53.076;18.250;2022-07-29T14:55:48;25.30;48.90
23507;DHT22;11930;53.076;18.250;2022-07-29T14:58:14;25.30;48.80
23507;DHT22;11930;53.076;18.250;2022-07-29T15:00:40;25.30;48.90
23507;DHT22;11930;53.076;18.250;2022-07-29T15:03:06;25.30;48.00
23507;DHT22;11930;53.076;18.250;2022-07-29T15:05:35;25.30;48.00
23507;DHT22;11930;53.076;18.250;2022-07-29T15:08:02;25.30;47.70
23507;DHT22;11930;53.076;18.250;2022-07-29T15:10:29;25.40;49.80
23507;DHT22;11930;53.076;18.250;2022-07-29T15:12:55;25.30;49.50
23507;DHT22;11930;53.076;18.250;2022-07-29T15:15:21;25.20;48.80
23507;DHT22;11930;53.076;18.250;2022-07-29T15:17:47;25.10;49.20
23507;DHT22;11930;53.076;18.250;2022-07-29T15:20:13;25.00;48.80
23507;DHT22;11930;53.076;18.250;2022-07-29T15:22:39;24.80;49.50
23507;DHT22;11930;53.076;18.250;2022-07-29T15:25:08;24.80;49.40
23507;DHT22;11930;53.076;18.250;2022-07-29T15:27:34;24.80;49.40
23507;DHT22;11930;53.076;18.250;2022-07-29T15:30:00;24.80;48.50
23507;DHT22;11930;53.076;18.250;2022-07-29T15:32:26;24.80;49.40
23507;DHT22;11930;53.076;18.250;2022-07-29T15:34:52;24.90;48.10
23507;DHT22;11930;53.076;18.250;2022-07-29T15:37:18;25.00;47.10
23507;DHT22;11930;53.076;18.250;2022-07-29T15:39:43;24.90;46.10
23507;DHT22;11930;53.076;18.250;2022-07-29T15:42:09;24.80;46.20
23507;DHT22;11930;53.076;18.250;2022-07-29T15:44:35;24.80;47.30
23507;DHT22;11930;53.076;18.250;2022-07-29T15:47:01;24.90;46.50
23507;DHT22;11930;53.076;18.250;2022-07-29T15:49:36;24.90;46.50
23507;DHT22;11930;53.076;18.250;2022-07-29T15:52:05;24.80;49.90
23507;DHT22;11930;53.076;18.250;2022-07-29T15:54:36;24.80;51.90
23507;DHT22;11930;53.076;18.250;2022-07-29T15:57:04;24.90;51.00
23507;DHT22;11930;53.076;18.250;2022-07-29T15:59:30;24.80;52.00
23507;DHT22;11930;53.076;18.250;2022-07-29T16:01:57;24.80;50.80
23507;DHT22;11930;53.076;18.250;2022-07-29T16:04:23;24.80;50.60